sensor_id;sensor_type;location;lat;lon;timestamp;pressure;altitude;pressure_sealevel;temperature;humidity
53858;BME280;39763;51.188;6.690;2023-02-15T00:00:37;102602.00;;;6.54;67.36
53858;BME280;39763;51.188;6.690;2023-02-15T00:02:09;102600.25;;;6.51;67.76
53858;BME280;39763;51.188;6.690;2023-02-15T00:03:40;102599.38;;;6.51;67.33
53858;BME280;39763;51.188;6.690;2023-02-15T00:05:12;102597.63;;;6.50;67.58
53858;BME280;39763;51.188;6.690;2023-02-15T00:06:44;102585.38;;;6.46;67.56
53858;BME280;39763;51.188;6.690;2023-02-15T00:08:15;102586.22;;;6.45;67.77
53858;BME280;39763;51.188;6.690;2023-02-15T00:09:48;102588.84;;;6.45;67.48
53858;BME280;39763;51.188;6.690;2023-02-15T00:11:20;102592.34;;;6.45;67.45
53858;BME280;39763;51.188;6.690;2023-02-15T00:13:10;102587.06;;;6.42;67.66
53858;BME280;39763;51.188;6.690;2023-02-15T00:14:42;102587.06;;;6.42;67.63
53858;BME280;39763;51.188;6.690;2023-02-15T00:16:14;102587.00;;;6.39;67.67
53858;BME280;39763;51.188;6.690;2023-02-15T00:17:45;102585.28;;;6.40;67.75
53858;BME280;39763;51.188;6.690;2023-02-15T00:19:17;102575.72;;;6.37;67.88
53858;BME280;39763;51.188;6.690;2023-02-15T00:20:50;102582.69;;;6.38;67.67
53858;BME280;39763;51.188;6.690;2023-02-15T00:22:21;102586.97;;;6.34;67.67
53858;BME280;39763;51.188;6.690;2023-02-15T00:23:53;102576.50;;;6.31;67.51
53858;BME280;39763;51.188;6.690;2023-02-15T00:25:26;102573.88;;;6.31;67.79
53858;BME280;39763;51.188;6.690;2023-02-15T00:26:57;102568.59;;;6.28;67.77
53858;BME280;39763;51.188;6.690;2023-02-15T00:28:29;102571.19;;;6.27;67.86
53858;BME280;39763;51.188;6.690;2023-02-15T00:30:03;102573.81;;;6.27;67.52
53858;BME280;39763;51.188;6.690;2023-02-15T00:31:35;102573.78;;;6.25;68.06
53858;BME280;39763;51.188;6.690;2023-02-15T00:33:07;102572.91;;;6.25;67.83
53858;BME280;39763;51.188;6.690;2023-02-15T00:34:39;102572.00;;;6.21;67.81
53858;BME280;39763;51.188;6.690;2023-02-15T00:36:11;102575.44;;;6.19;67.66
53858;BME280;39763;51.188;6.690;2023-02-15T00:37:42;102578.03;;;6.17;68.24
53858;BME280;39763;51.188;6.690;2023-02-15T00:39:14;102569.31;;;6.17;67.91
53858;BME280;39763;51.188;6.690;2023-02-15T00:40:52;102563.19;;;6.15;68.09
53858;BME280;39763;51.188;6.690;2023-02-15T00:42:24;102572.78;;;6.16;67.95
53858;BME280;39763;51.188;6.690;2023-02-15T00:43:56;102570.16;;;6.16;67.94
53858;BME280;39763;51.188;6.690;2023-02-15T00:45:27;102565.78;;;6.13;68.25
53858;BME280;39763;51.188;6.690;2023-02-15T00:46:59;102571.00;;;6.13;67.88
53858;BME280;39763;51.188;6.690;2023-02-15T00:48:30;102569.22;;;6.11;67.94
53858;BME280;39763;51.188;6.690;2023-02-15T00:50:02;102560.50;;;6.07;68.42
53858;BME280;39763;51.188;6.690;2023-02-15T00:51:34;102556.97;;;6.05;68.65
53858;BME280;39763;51.188;6.690;2023-02-15T00:53:06;102565.69;;;6.06;68.41
53858;BME280;39763;51.188;6.690;2023-02-15T00:54:37;102565.63;;;6.03;68.84
53858;BME280;39763;51.188;6.690;2023-02-15T00:56:11;102562.91;;;5.96;68.84
53858;BME280;39763;51.188;6.690;2023-02-15T00:57:43;102563.81;;;5.97;68.55
53858;BME280;39763;51.188;6.690;2023-02-15T00:59:14;102565.56;;;5.98;68.87
53858;BME280;39763;51.188;6.690;2023-02-15T01:00:46;102563.00;;;6.01;69.04
53858;BME280;39763;51.188;6.690;2023-02-15T01:02:18;102556.84;;;5.97;68.57
53858;BME280;39763;51.188;6.690;2023-02-15T01:03:50;102569.84;;;5.94;68.79
53858;BME280;39763;51.188;6.690;2023-02-15T01:05:22;102558.56;;;5.95;68.41
53858;BME280;39763;51.188;6.690;2023-02-15T01:06:54;102558.53;;;5.92;69.09
53858;BME280;39763;51.188;6.690;2023-02-15T01:08:25;102568.06;;;5.90;69.25
53858;BME280;39763;51.188;6.690;2023-02-15T01:09:57;102564.56;;;5.88;69.21
53858;BME280;39763;51.188;6.690;2023-02-15T01:11:31;102568.84;;;5.88;69.20
53858;BME280;39763;51.188;6.690;2023-02-15T01:13:03;102562.75;;;5.87;69.20
53858;BME280;39763;51.188;6.690;2023-02-15T01:14:34;102560.97;;;5.85;69.11
53858;BME280;39763;51.188;6.690;2023-02-15T01:16:06;102560.97;;;5.85;69.43
53858;BME280;39763;51.188;6.690;2023-02-15T01:17:38;102565.28;;;5.83;69.34
53858;BME280;39763;51.188;6.690;2023-02-15T01:19:10;102570.53;;;5.84;69.48
53858;BME280;39763;51.188;6.690;2023-02-15T01:20:43;102564.41;;;5.82;68.93
53858;BME280;39763;51.188;6.690;2023-02-15T01:22:14;102567.03;;;5.84;69.36
53858;BME280;39763;51.188;6.690;2023-02-15T01:23:46;102558.31;;;5.82;69.31
53858;BME280;39763;51.188;6.690;2023-02-15T01:25:18;102554.84;;;5.83;69.17
53858;BME280;39763;51.188;6.690;2023-02-15T01:26:51;102556.63;;;5.85;68.99
53858;BME280;39763;51.188;6.690;2023-02-15T01:28:23;102553.13;;;5.83;68.93
53858;BME280;39763;51.188;6.690;2023-02-15T01:29:55;102551.31;;;5.78;69.06
53858;BME280;39763;51.188;6.690;2023-02-15T01:31:26;102565.25;;;5.78;69.03
53858;BME280;39763;51.188;6.690;2023-02-15T01:32:58;102558.28;;;5.77;69.26
53858;BME280;39763;51.188;6.690;2023-02-15T01:34:34;102559.97;;;5.75;69.12
53858;BME280;39763;51.188;6.690;2023-02-15T01:36:06;102560.78;;;5.73;69.44
53858;BME280;39763;51.188;6.690;2023-02-15T01:37:38;102567.72;;;5.71;69.56
53858;BME280;39763;51.188;6.690;2023-02-15T01:39:09;102557.22;;;5.67;69.96
53858;BME280;39763;51.188;6.690;2023-02-15T01:40:41;102561.56;;;5.67;69.43
53858;BME280;39763;51.188;6.690;2023-02-15T01:42:21;102556.31;;;5.65;69.55
53858;BME280;39763;51.188;6.690;2023-02-15T01:43:55;102560.66;;;5.63;69.82
53858;BME280;39763;51.188;6.690;2023-02-15T01:45:27;102557.16;;;5.63;69.90
53858;BME280;39763;51.188;6.690;2023-02-15T01:47:00;102557.13;;;5.61;69.86
53858;BME280;39763;51.188;6.690;2023-02-15T01:48:31;102546.69;;;5.60;69.45
53858;BME280;39763;51.188;6.690;2023-02-15T01:50:05;102538.88;;;5.60;69.42
53858;BME280;39763;51.188;6.690;2023-02-15T01:51:39;102544.06;;;5.58;70.02
53858;BME280;39763;51.188;6.690;2023-02-15T01:53:13;102544.03;;;5.57;69.68
53858;BME280;39763;51.188;6.690;2023-02-15T01:54:45;102543.13;;;5.55;70.31
53858;BME280;39763;51.188;6.690;2023-02-15T01:56:19;102533.56;;;5.55;69.90
53858;BME280;39763;51.188;6.690;2023-02-15T01:57:54;102536.16;;;5.54;69.95
53858;BME280;39763;51.188;6.690;2023-02-15T01:59:26;102537.84;;;5.52;69.93
53858;BME280;39763;51.188;6.690;2023-02-15T02:00:59;102539.59;;;5.53;70.29
53858;BME280;39763;51.188;6.690;2023-02-15T02:02:31;102533.47;;;5.51;70.18
53858;BME280;39763;51.188;6.690;2023-02-15T02:04:04;102534.34;;;5.50;70.08
53858;BME280;39763;51.188;6.690;2023-02-15T02:05:39;102530.84;;;5.48;70.35
53858;BME280;39763;51.188;6.690;2023-02-15T02:07:12;102529.97;;;5.47;70.04
53858;BME280;39763;51.188;6.690;2023-02-15T02:08:45;102515.16;;;5.45;70.43
53858;BME280;39763;51.188;6.690;2023-02-15T02:10:19;102516.91;;;5.46;70.67
53858;BME280;39763;51.188;6.690;2023-02-15T02:11:51;102520.34;;;5.43;70.24
53858;BME280;39763;51.188;6.690;2023-02-15T02:13:27;102518.63;;;5.44;70.09
53858;BME280;39763;51.188;6.690;2023-02-15T02:14:59;102515.16;;;5.45;70.53
53858;BME280;39763;51.188;6.690;2023-02-15T02:16:34;102511.66;;;5.43;69.95
53858;BME280;39763;51.188;6.690;2023-02-15T02:18:16;102515.06;;;5.40;70.20
53858;BME280;39763;51.188;6.690;2023-02-15T02:22:05;102513.25;;;5.36;70.59
53858;BME280;39763;51.188;6.690;2023-02-15T02:23:43;102513.28;;;5.38;70.40
53858;BME280;39763;51.188;6.690;2023-02-15T02:25:23;102519.34;;;5.37;70.57
53858;BME280;39763;51.188;6.690;2023-02-15T02:27:12;102507.16;;;5.36;70.83
53858;BME280;39763;51.188;6.690;2023-02-15T02:28:58;102505.47;;;5.38;70.55
53858;BME280;39763;51.188;6.690;2023-02-15T02:30:43;102502.88;;;5.38;70.63
53858;BME280;39763;51.188;6.690;2023-02-15T02:32:28;102503.69;;;5.35;70.15
53858;BME280;39763;51.188;6.690;2023-02-15T02:34:08;102501.91;;;5.31;70.58
53858;BME280;39763;51.188;6.690;2023-02-15T02:35:44;102499.31;;;5.31;70.55
53858;BME280;39763;51.188;6.690;2023-02-15T02:37:21;102494.03;;;5.28;70.45
53858;BME280;39763;51.188;6.690;2023-02-15T02:38:59;102490.53;;;5.26;70.65
53858;BME280;39763;51.188;6.690;2023-02-15T02:40:38;102491.47;;;5.29;70.35
53858;BME280;39763;51.188;6.690;2023-02-15T02:42:14;102495.75;;;5.27;70.22
53858;BME280;39763;51.188;6.690;2023-02-15T02:43:50;102487.88;;;5.24;70.68
53858;BME280;39763;51.188;6.690;2023-02-15T02:45:24;102500.91;;;5.24;70.46
53858;BME280;39763;51.188;6.690;2023-02-15T02:46:58;102485.22;;;5.21;70.54
53858;BME280;39763;51.188;6.690;2023-02-15T02:48:32;102486.97;;;5.22;70.76
53858;BME280;39763;51.188;6.690;2023-02-15T02:50:07;102478.31;;;5.23;70.86
53858;BME280;39763;51.188;6.690;2023-02-15T02:51:41;102486.97;;;5.19;70.79
53858;BME280;39763;51.188;6.690;2023-02-15T02:53:13;102472.19;;;5.18;71.02
53858;BME280;39763;51.188;6.690;2023-02-15T02:54:47;102471.31;;;5.19;71.09
53858;BME280;39763;51.188;6.690;2023-02-15T02:56:21;102465.19;;;5.16;70.91
53858;BME280;39763;51.188;6.690;2023-02-15T02:57:54;102477.31;;;5.15;71.13
53858;BME280;39763;51.188;6.690;2023-02-15T02:59:27;102472.97;;;5.14;71.16
53858;BME280;39763;51.188;6.690;2023-02-15T03:01:02;102476.47;;;5.16;70.77
53858;BME280;39763;51.188;6.690;2023-02-15T03:02:39;102468.63;;;5.15;70.68
53858;BME280;39763;51.188;6.690;2023-02-15T03:04:12;102470.38;;;5.14;71.10
53858;BME280;39763;51.188;6.690;2023-02-15T03:05:48;102466.84;;;5.12;71.04
53858;BME280;39763;51.188;6.690;2023-02-15T03:07:22;102468.56;;;5.12;71.05
53858;BME280;39763;51.188;6.690;2023-02-15T03:08:56;102459.00;;;5.11;70.86
53858;BME280;39763;51.188;6.690;2023-02-15T03:10:29;102458.13;;;5.10;70.89
53858;BME280;39763;51.188;6.690;2023-02-15T03:12:01;102449.44;;;5.10;71.12
53858;BME280;39763;51.188;6.690;2023-02-15T03:13:36;102442.47;;;5.09;70.84
53858;BME280;39763;51.188;6.690;2023-02-15T03:15:10;102453.78;;;5.09;71.24
53858;BME280;39763;51.188;6.690;2023-02-15T03:16:46;102449.44;;;5.10;71.38
53858;BME280;39763;51.188;6.690;2023-02-15T03:18:20;102452.91;;;5.10;71.05
53858;BME280;39763;51.188;6.690;2023-02-15T03:19:53;102445.09;;;5.09;71.03
53858;BME280;39763;51.188;6.690;2023-02-15T03:21:30;102445.03;;;5.04;71.34
53858;BME280;39763;51.188;6.690;2023-02-15T03:23:03;102451.06;;;5.05;71.61
53858;BME280;39763;51.188;6.690;2023-02-15T03:24:37;102453.69;;;5.03;70.89
53858;BME280;39763;51.188;6.690;2023-02-15T03:26:12;102447.56;;;5.01;70.97
53858;BME280;39763;51.188;6.690;2023-02-15T03:27:44;102453.63;;;5.00;71.04
53858;BME280;39763;51.188;6.690;2023-02-15T03:29:17;102458.84;;;5.00;71.71
53858;BME280;39763;51.188;6.690;2023-02-15T03:30:51;102447.56;;;5.01;71.58
53858;BME280;39763;51.188;6.690;2023-02-15T03:32:24;102450.06;;;4.95;71.28
53858;BME280;39763;51.188;6.690;2023-02-15T03:33:57;102450.88;;;4.92;71.41
53858;BME280;39763;51.188;6.690;2023-02-15T03:35:31;102459.56;;;4.93;71.71
53858;BME280;39763;51.188;6.690;2023-02-15T03:37:10;102463.00;;;4.92;71.63
53858;BME280;39763;51.188;6.690;2023-02-15T03:38:44;102462.16;;;4.93;71.71
53858;BME280;39763;51.188;6.690;2023-02-15T03:40:21;102463.03;;;4.93;71.41
53858;BME280;39763;51.188;6.690;2023-02-15T03:42:13;102456.97;;;4.93;71.44
53858;BME280;39763;51.188;6.690;2023-02-15T03:43:49;102466.53;;;4.94;71.51
53858;BME280;39763;51.188;6.690;2023-02-15T03:45:23;102458.69;;;4.92;71.68
53858;BME280;39763;51.188;6.690;2023-02-15T03:46:58;102456.91;;;4.90;71.84
53858;BME280;39763;51.188;6.690;2023-02-15T03:48:32;102452.56;;;4.89;71.64
53858;BME280;39763;51.188;6.690;2023-02-15T03:50:07;102450.81;;;4.88;71.83
53858;BME280;39763;51.188;6.690;2023-02-15T03:52:00;102456.88;;;4.87;71.63
53858;BME280;39763;51.188;6.690;2023-02-15T03:53:36;102447.38;;;4.89;71.77
53858;BME280;39763;51.188;6.690;2023-02-15T03:55:08;102446.47;;;4.87;71.62
53858;BME280;39763;51.188;6.690;2023-02-15T03:56:41;102446.41;;;4.84;71.91
53858;BME280;39763;51.188;6.690;2023-02-15T03:58:13;102436.84;;;4.84;71.59
53858;BME280;39763;51.188;6.690;2023-02-15T04:00:04;102442.88;;;4.82;71.66
53858;BME280;39763;51.188;6.690;2023-02-15T04:01:59;102448.13;;;4.83;71.62
53858;BME280;39763;51.188;6.690;2023-02-15T04:03:35;102445.44;;;4.79;72.19
53858;BME280;39763;51.188;6.690;2023-02-15T04:05:10;102448.03;;;4.79;72.02
53858;BME280;39763;51.188;6.690;2023-02-15T04:06:41;102450.69;;;4.82;72.21
53858;BME280;39763;51.188;6.690;2023-02-15T04:08:13;102449.81;;;4.81;71.81
53858;BME280;39763;51.188;6.690;2023-02-15T04:09:46;102446.41;;;4.84;71.68
53858;BME280;39763;51.188;6.690;2023-02-15T04:11:36;102439.44;;;4.83;72.08
53858;BME280;39763;51.188;6.690;2023-02-15T04:13:07;102451.56;;;4.82;71.89
53858;BME280;39763;51.188;6.690;2023-02-15T04:14:39;102448.13;;;4.83;71.54
53858;BME280;39763;51.188;6.690;2023-02-15T04:16:37;102442.88;;;4.82;71.50
53858;BME280;39763;51.188;6.690;2023-02-15T04:18:09;102445.47;;;4.80;71.96
53858;BME280;39763;51.188;6.690;2023-02-15T04:19:40;102445.44;;;4.79;71.88
53858;BME280;39763;51.188;6.690;2023-02-15T04:21:30;102453.16;;;4.76;71.89
53858;BME280;39763;51.188;6.690;2023-02-15T04:23:21;102449.72;;;4.77;72.24
53858;BME280;39763;51.188;6.690;2023-02-15T04:25:12;102447.16;;;4.78;72.23
53858;BME280;39763;51.188;6.690;2023-02-15T04:26:44;102446.25;;;4.75;71.97
53858;BME280;39763;51.188;6.690;2023-02-15T04:28:17;102445.38;;;4.76;71.67
53858;BME280;39763;51.188;6.690;2023-02-15T04:29:48;102447.94;;;4.73;72.29
53858;BME280;39763;51.188;6.690;2023-02-15T04:31:21;102438.38;;;4.72;72.09
53858;BME280;39763;51.188;6.690;2023-02-15T04:32:53;102442.72;;;4.73;72.02
53858;BME280;39763;51.188;6.690;2023-02-15T04:34:25;102442.69;;;4.71;71.76
53858;BME280;39763;51.188;6.690;2023-02-15T04:35:56;102440.97;;;4.72;71.87
53858;BME280;39763;51.188;6.690;2023-02-15T04:37:28;102433.06;;;4.67;71.68
53858;BME280;39763;51.188;6.690;2023-02-15T04:39:00;102433.94;;;4.68;72.22
53858;BME280;39763;51.188;6.690;2023-02-15T04:40:32;102430.41;;;4.64;72.08
53858;BME280;39763;51.188;6.690;2023-02-15T04:42:04;102446.00;;;4.63;72.04
53858;BME280;39763;51.188;6.690;2023-02-15T04:43:36;102438.16;;;4.59;71.93
53858;BME280;39763;51.188;6.690;2023-02-15T04:45:07;102431.19;;;4.58;72.29
53858;BME280;39763;51.188;6.690;2023-02-15T04:46:39;102437.25;;;4.57;72.38
53858;BME280;39763;51.188;6.690;2023-02-15T04:48:10;102439.81;;;4.56;72.14
53858;BME280;39763;51.188;6.690;2023-02-15T04:49:42;102438.94;;;4.55;72.31
53858;BME280;39763;51.188;6.690;2023-02-15T04:51:14;102444.06;;;4.52;72.45
53858;BME280;39763;51.188;6.690;2023-02-15T04:52:45;102438.91;;;4.54;72.06
53858;BME280;39763;51.188;6.690;2023-02-15T04:54:17;102438.88;;;4.52;72.50
53858;BME280;39763;51.188;6.690;2023-02-15T04:55:50;102441.53;;;4.55;72.48
53858;BME280;39763;51.188;6.690;2023-02-15T04:57:21;102441.50;;;4.54;72.20
53858;BME280;39763;51.188;6.690;2023-02-15T04:58:53;102437.22;;;4.56;72.64
53858;BME280;39763;51.188;6.690;2023-02-15T05:00:25;102434.66;;;4.57;72.50
53858;BME280;39763;51.188;6.690;2023-02-15T05:01:56;102433.78;;;4.58;72.54
53858;BME280;39763;51.188;6.690;2023-02-15T05:03:28;102432.91;;;4.58;72.38
53858;BME280;39763;51.188;6.690;2023-02-15T05:05:00;102428.56;;;4.57;72.32
53858;BME280;39763;51.188;6.690;2023-02-15T05:06:31;102432.84;;;4.55;72.47
53858;BME280;39763;51.188;6.690;2023-02-15T05:08:03;102430.28;;;4.56;72.33
53858;BME280;39763;51.188;6.690;2023-02-15T05:09:35;102425.97;;;4.57;72.39
53858;BME280;39763;51.188;6.690;2023-02-15T05:11:08;102426.81;;;4.56;72.09
53858;BME280;39763;51.188;6.690;2023-02-15T05:12:39;102426.78;;;4.54;71.97
53858;BME280;39763;51.188;6.690;2023-02-15T05:14:11;102426.69;;;4.50;72.36
53858;BME280;39763;51.188;6.690;2023-02-15T05:15:46;102428.47;;;4.52;72.11
53858;BME280;39763;51.188;6.690;2023-02-15T05:17:17;102420.63;;;4.51;72.32
53858;BME280;39763;51.188;6.690;2023-02-15T05:18:49;102418.84;;;4.48;71.99
53858;BME280;39763;51.188;6.690;2023-02-15T05:20:20;102414.47;;;4.47;72.34
53858;BME280;39763;51.188;6.690;2023-02-15T05:21:52;102417.91;;;4.43;72.57
53858;BME280;39763;51.188;6.690;2023-02-15T05:23:24;102416.13;;;4.42;72.31
53858;BME280;39763;51.188;6.690;2023-02-15T05:24:55;102413.53;;;4.42;72.63
53858;BME280;39763;51.188;6.690;2023-02-15T05:26:47;102418.75;;;4.42;72.07
53858;BME280;39763;51.188;6.690;2023-02-15T05:28:37;102416.91;;;4.38;72.39
53858;BME280;39763;51.188;6.690;2023-02-15T05:30:09;102421.25;;;4.38;72.41
53858;BME280;39763;51.188;6.690;2023-02-15T05:31:43;102415.16;;;4.37;72.50
53858;BME280;39763;51.188;6.690;2023-02-15T05:33:18;102409.97;;;4.37;72.86
53858;BME280;39763;51.188;6.690;2023-02-15T05:34:51;102412.69;;;4.43;72.55
53858;BME280;39763;51.188;6.690;2023-02-15T05:36:22;102406.72;;;4.49;72.45
53858;BME280;39763;51.188;6.690;2023-02-15T05:37:54;102403.31;;;4.53;72.53
53858;BME280;39763;51.188;6.690;2023-02-15T05:39:25;102411.25;;;4.60;72.30
53858;BME280;39763;51.188;6.690;2023-02-15T05:40:57;102409.63;;;4.66;72.30
53858;BME280;39763;51.188;6.690;2023-02-15T05:42:30;102403.59;;;4.68;71.60
53858;BME280;39763;51.188;6.690;2023-02-15T05:44:01;102407.13;;;4.70;71.62
53858;BME280;39763;51.188;6.690;2023-02-15T05:45:33;102403.69;;;4.73;71.76
53858;BME280;39763;51.188;6.690;2023-02-15T05:47:07;102411.47;;;4.71;71.41
53858;BME280;39763;51.188;6.690;2023-02-15T05:48:38;102401.88;;;4.69;71.27
53858;BME280;39763;51.188;6.690;2023-02-15T05:50:10;102400.16;;;4.69;71.24
53858;BME280;39763;51.188;6.690;2023-02-15T05:51:42;102404.47;;;4.69;71.47
53858;BME280;39763;51.188;6.690;2023-02-15T05:53:14;102396.63;;;4.67;71.55
53858;BME280;39763;51.188;6.690;2023-02-15T05:54:45;102403.53;;;4.65;71.67
53858;BME280;39763;51.188;6.690;2023-02-15T05:56:17;102404.34;;;4.63;71.52
53858;BME280;39763;51.188;6.690;2023-02-15T05:57:50;102406.03;;;4.60;71.59
53858;BME280;39763;51.188;6.690;2023-02-15T05:59:22;102397.38;;;4.58;71.55
53858;BME280;39763;51.188;6.690;2023-02-15T06:00:53;102401.69;;;4.58;71.74
53858;BME280;39763;51.188;6.690;2023-02-15T06:02:25;102404.31;;;4.59;71.39
53858;BME280;39763;51.188;6.690;2023-02-15T06:03:57;102409.44;;;4.55;71.81
53858;BME280;39763;51.188;6.690;2023-02-15T06:05:28;102403.41;;;4.57;71.61
53858;BME280;39763;51.188;6.690;2023-02-15T06:07:00;102406.00;;;4.56;71.78
53858;BME280;39763;51.188;6.690;2023-02-15T06:08:32;102405.91;;;4.51;71.61
53858;BME280;39763;51.188;6.690;2023-02-15T06:10:04;102414.50;;;4.49;71.77
53858;BME280;39763;51.188;6.690;2023-02-15T06:11:36;102418.06;;;4.52;71.72
53858;BME280;39763;51.188;6.690;2023-02-15T06:13:09;102421.56;;;4.54;72.11
53858;BME280;39763;51.188;6.690;2023-02-15T06:14:41;102420.63;;;4.51;72.12
53858;BME280;39763;51.188;6.690;2023-02-15T06:16:12;102414.53;;;4.50;71.85
53858;BME280;39763;51.188;6.690;2023-02-15T06:17:44;102417.16;;;4.50;71.48
53858;BME280;39763;51.188;6.690;2023-02-15T06:19:15;102418.81;;;4.47;71.87
53858;BME280;39763;51.188;6.690;2023-02-15T06:20:47;102424.84;;;4.46;71.65
53858;BME280;39763;51.188;6.690;2023-02-15T06:22:19;102422.22;;;4.43;71.63
53858;BME280;39763;51.188;6.690;2023-02-15T06:23:51;102417.91;;;4.43;71.93
53858;BME280;39763;51.188;6.690;2023-02-15T06:25:23;102417.91;;;4.43;71.79
53858;BME280;39763;51.188;6.690;2023-02-15T06:26:55;102419.66;;;4.44;72.32
53858;BME280;39763;51.188;6.690;2023-02-15T06:28:28;102422.31;;;4.49;71.58
53858;BME280;39763;51.188;6.690;2023-02-15T06:30:00;102418.81;;;4.47;71.49
53858;BME280;39763;51.188;6.690;2023-02-15T06:31:32;102417.06;;;4.46;71.93
53858;BME280;39763;51.188;6.690;2023-02-15T06:33:04;102421.38;;;4.44;71.64
53858;BME280;39763;51.188;6.690;2023-02-15T06:34:36;102421.34;;;4.42;72.10
53858;BME280;39763;51.188;6.690;2023-02-15T06:36:07;102419.59;;;4.41;71.88
53858;BME280;39763;51.188;6.690;2023-02-15T06:37:40;102419.56;;;4.40;71.92
53858;BME280;39763;51.188;6.690;2023-02-15T06:39:11;102416.91;;;4.38;71.71
53858;BME280;39763;51.188;6.690;2023-02-15T06:40:43;102422.09;;;4.37;72.27
53858;BME280;39763;51.188;6.690;2023-02-15T06:42:14;102418.66;;;4.38;72.23
53858;BME280;39763;51.188;6.690;2023-02-15T06:43:48;102416.00;;;4.36;72.24
53858;BME280;39763;51.188;6.690;2023-02-15T06:45:19;102422.16;;;4.40;71.82
53858;BME280;39763;51.188;6.690;2023-02-15T06:46:55;102424.84;;;4.44;71.76
53858;BME280;39763;51.188;6.690;2023-02-15T06:48:27;102426.53;;;4.42;71.98
53858;BME280;39763;51.188;6.690;2023-02-15T06:49:58;102419.63;;;4.43;71.67
53858;BME280;39763;51.188;6.690;2023-02-15T06:51:30;102429.16;;;4.42;71.52
53858;BME280;39763;51.188;6.690;2023-02-15T06:53:02;102420.50;;;4.43;72.02
53858;BME280;39763;51.188;6.690;2023-02-15T06:54:34;102415.19;;;4.39;71.86
53858;BME280;39763;51.188;6.690;2023-02-15T06:56:06;102419.50;;;4.37;71.72
53858;BME280;39763;51.188;6.690;2023-02-15T06:57:40;102411.81;;;4.43;71.58
53858;BME280;39763;51.188;6.690;2023-02-15T06:59:13;102421.25;;;4.38;71.63
53858;BME280;39763;51.188;6.690;2023-02-15T07:00:44;102418.75;;;4.42;71.87
53858;BME280;39763;51.188;6.690;2023-02-15T07:02:16;102421.34;;;4.42;71.49
53858;BME280;39763;51.188;6.690;2023-02-15T07:03:48;102414.38;;;4.41;71.87
53858;BME280;39763;51.188;6.690;2023-02-15T07:05:19;102416.13;;;4.42;71.96
53858;BME280;39763;51.188;6.690;2023-02-15T07:06:51;102422.25;;;4.46;72.05
53858;BME280;39763;51.188;6.690;2023-02-15T07:08:25;102417.09;;;4.47;71.70
53858;BME280;39763;51.188;6.690;2023-02-15T07:09:56;102411.03;;;4.48;71.70
53858;BME280;39763;51.188;6.690;2023-02-15T07:11:28;102405.88;;;4.50;71.44
53858;BME280;39763;51.188;6.690;2023-02-15T07:13:19;102406.72;;;4.49;71.20
53858;BME280;39763;51.188;6.690;2023-02-15T07:14:52;102414.44;;;4.46;71.90
53858;BME280;39763;51.188;6.690;2023-02-15T07:16:23;102407.56;;;4.48;71.54
53858;BME280;39763;51.188;6.690;2023-02-15T07:17:56;102408.47;;;4.50;71.85
53858;BME280;39763;51.188;6.690;2023-02-15T07:19:28;102411.91;;;4.49;71.37
53858;BME280;39763;51.188;6.690;2023-02-15T07:20:59;102408.47;;;4.50;71.30
53858;BME280;39763;51.188;6.690;2023-02-15T07:22:31;102403.28;;;4.51;71.89
53858;BME280;39763;51.188;6.690;2023-02-15T07:24:05;102400.69;;;4.51;71.57
53858;BME280;39763;51.188;6.690;2023-02-15T07:25:37;102407.72;;;4.55;71.87
53858;BME280;39763;51.188;6.690;2023-02-15T07:27:09;102404.25;;;4.56;71.64
53858;BME280;39763;51.188;6.690;2023-02-15T07:28:43;102404.25;;;4.56;71.64
53858;BME280;39763;51.188;6.690;2023-02-15T07:30:16;102397.31;;;4.55;71.39
53858;BME280;39763;51.188;6.690;2023-02-15T07:31:48;102400.81;;;4.57;71.67
53858;BME280;39763;51.188;6.690;2023-02-15T07:33:20;102392.19;;;4.61;71.62
53858;BME280;39763;51.188;6.690;2023-02-15T07:34:54;102395.69;;;4.64;71.65
53858;BME280;39763;51.188;6.690;2023-02-15T07:36:26;102389.69;;;4.66;71.11
53858;BME280;39763;51.188;6.690;2023-02-15T07:37:58;102392.25;;;4.65;71.29
53858;BME280;39763;51.188;6.690;2023-02-15T07:39:29;102384.47;;;4.66;71.27
53858;BME280;39763;51.188;6.690;2023-02-15T07:41:01;102378.47;;;4.70;70.95
53858;BME280;39763;51.188;6.690;2023-02-15T07:42:33;102381.94;;;4.69;71.03
53858;BME280;39763;51.188;6.690;2023-02-15T07:44:05;102381.13;;;4.72;71.42
53858;BME280;39763;51.188;6.690;2023-02-15T07:45:38;102363.81;;;4.75;71.12
53858;BME280;39763;51.188;6.690;2023-02-15T07:47:10;102375.09;;;4.76;70.98
53858;BME280;39763;51.188;6.690;2023-02-15T07:48:42;102373.38;;;4.75;71.30
53858;BME280;39763;51.188;6.690;2023-02-15T07:50:14;102366.44;;;4.77;70.64
53858;BME280;39763;51.188;6.690;2023-02-15T07:51:45;102357.84;;;4.81;70.71
53858;BME280;39763;51.188;6.690;2023-02-15T07:53:17;102366.53;;;4.83;70.66
53858;BME280;39763;51.188;6.690;2023-02-15T07:54:49;102362.22;;;4.83;70.82
53858;BME280;39763;51.188;6.690;2023-02-15T07:56:20;102366.63;;;4.87;70.93
53858;BME280;39763;51.188;6.690;2023-02-15T07:57:52;102364.91;;;4.88;70.58
53858;BME280;39763;51.188;6.690;2023-02-15T07:59:25;102361.44;;;4.90;70.74
53858;BME280;39763;51.188;6.690;2023-02-15T08:00:59;102352.78;;;4.91;70.60
53858;BME280;39763;51.188;6.690;2023-02-15T08:02:33;102356.31;;;4.95;70.07
53858;BME280;39763;51.188;6.690;2023-02-15T08:04:06;102355.47;;;4.96;70.47
53858;BME280;39763;51.188;6.690;2023-02-15T08:05:38;102352.94;;;4.99;70.09
53858;BME280;39763;51.188;6.690;2023-02-15T08:07:09;102354.69;;;5.00;70.19
53858;BME280;39763;51.188;6.690;2023-02-15T08:08:41;102353.81;;;5.00;70.05
53858;BME280;39763;51.188;6.690;2023-02-15T08:10:13;102360.78;;;5.02;70.38
53858;BME280;39763;51.188;6.690;2023-02-15T08:12:05;102352.97;;;5.02;70.65
53858;BME280;39763;51.188;6.690;2023-02-15T08:13:37;102355.66;;;5.08;69.87
53858;BME280;39763;51.188;6.690;2023-02-15T08:15:24;102349.59;;;5.09;69.84
53858;BME280;39763;51.188;6.690;2023-02-15T08:16:58;102347.91;;;5.11;69.49
53858;BME280;39763;51.188;6.690;2023-02-15T08:18:31;102354.94;;;5.17;69.67